ORD weather

Chicago O'Hare International Airport
Chicago, Illinois, United States

Public forecast

Using degrees Fahrenheit for public forecast. Weather courtesy of forecast.io.

METAR (pilot weather report)

Retrieved 2018/10/19 06:51 UTC (2 hours ago):

KORD 190651Z 21009KT 10SM FEW250 08/00 A3025 RMK AO2 SLP245 T00780000

TAF (pilot weather forecast)

Retrieved 2018/10/19 06:22 UTC (2 hours ago):

TAF KORD 190520Z 1906/2012 22008KT P6SM SCT250 FM191400 22013G20KT P6SM BKN100 FM191800 22015G23KT P6SM VCSH SCT040 OVC060 FM192100 23015G24KT P6SM BKN025 FM200200 28011KT P6SM FEW050